HBKMI LFSB-LFSB
Flight info
| Callsign | HBKMI |
|---|---|
| Flight time | 0h 13m |
| Altitude | 3000 |
| Route | SCENIC FLIGHT |
| Aircraft | P208/L-S/C |
Departure
| Time | 2026-05-01 14:43 |
|---|---|
| Airport | EuroAirport Basel–Mulhouse–Freiburg (LFSB) |
Arrival
| Time | 2026-05-01 14:56 |
|---|---|
| Airport | EuroAirport Basel–Mulhouse–Freiburg (LFSB) |
| Time | Latitude | Longitude | Altitude | Speed | Heading |
|---|---|---|---|---|---|
| 2026-05-01 14:26 | 47.60288 | 7.52528 | 888 ft | 0 kts | 320° |
| 2026-05-01 14:35 | 47.60290 | 7.52526 | 888 ft | 1 kts | 314° |
| 2026-05-01 14:36 | 47.60291 | 7.52517 | 888 ft | 0 kts | 241° |
| 2026-05-01 14:36 | 47.60258 | 7.52491 | 888 ft | 16 kts | 198° |
| 2026-05-01 14:36 | 47.60192 | 7.52453 | 885 ft | 5 kts | 271° |
| 2026-05-01 14:36 | 47.60203 | 7.52380 | 881 ft | 13 kts | 294° |
| 2026-05-01 14:37 | 47.60239 | 7.52351 | 880 ft | 13 kts | 341° |
| 2026-05-01 14:37 | 47.60361 | 7.52260 | 880 ft | 23 kts | 337° |
| 2026-05-01 14:37 | 47.60524 | 7.52143 | 880 ft | 24 kts | 344° |
| 2026-05-01 14:37 | 47.60566 | 7.52025 | 879 ft | 9 kts | 248° |
| 2026-05-01 14:38 | 47.60562 | 7.52013 | 879 ft | 0 kts | 239° |
| 2026-05-01 14:42 | 47.60507 | 7.51891 | 877 ft | 24 kts | 201° |
| 2026-05-01 14:42 | 47.60307 | 7.52004 | 880 ft | 51 kts | 159° |
| 2026-05-01 14:42 | 47.59926 | 7.52277 | 958 ft | 64 kts | 156° |
| 2026-05-01 14:42 | 47.59516 | 7.52566 | 1138 ft | 65 kts | 163° |
| 2026-05-01 14:43 | 47.59123 | 7.52391 | 1338 ft | 63 kts | 225° |
| 2026-05-01 14:43 | 47.58874 | 7.51872 | 1487 ft | 68 kts | 247° |
| 2026-05-01 14:43 | 47.58828 | 7.51245 | 1751 ft | 51 kts | 285° |
| 2026-05-01 14:43 | 47.58979 | 7.50640 | 1804 ft | 69 kts | 286° |
| 2026-05-01 14:44 | 47.59112 | 7.49940 | 1986 ft | 68 kts | 283° |
| 2026-05-01 14:44 | 47.59172 | 7.48508 | 2302 ft | 81 kts | 268° |
| 2026-05-01 14:44 | 47.59163 | 7.47662 | 2358 ft | 92 kts | 280° |
| 2026-05-01 14:45 | 47.59341 | 7.46803 | 2608 ft | 76 kts | 290° |
| 2026-05-01 14:45 | 47.59682 | 7.45193 | 2903 ft | 80 kts | 279° |
| 2026-05-01 14:45 | 47.59710 | 7.44333 | 3023 ft | 85 kts | 266° |
| 2026-05-01 14:46 | 47.59700 | 7.43362 | 2907 ft | 103 kts | 276° |
| 2026-05-01 14:46 | 47.59864 | 7.41193 | 2699 ft | 110 kts | 278° |
| 2026-05-01 14:46 | 47.59993 | 7.40113 | 2684 ft | 102 kts | 281° |
| 2026-05-01 14:47 | 47.60414 | 7.39270 | 2313 ft | 120 kts | 340° |
| 2026-05-01 14:47 | 47.61215 | 7.39328 | 2202 ft | 106 kts | 7° |
| 2026-05-01 14:47 | 47.61945 | 7.39282 | 2025 ft | 106 kts | 354° |
| 2026-05-01 14:48 | 47.63393 | 7.39287 | 1795 ft | 103 kts | 359° |
| 2026-05-01 14:48 | 47.64075 | 7.39266 | 1860 ft | 85 kts | 359° |
| 2026-05-01 14:48 | 47.65153 | 7.39278 | 2103 ft | 79 kts | 355° |
| 2026-05-01 14:49 | 47.66198 | 7.38922 | 2301 ft | 77 kts | 335° |
| 2026-05-01 14:49 | 47.67208 | 7.38414 | 2452 ft | 78 kts | 347° |
| 2026-05-01 14:50 | 47.68075 | 7.38105 | 2616 ft | 77 kts | 338° |
| 2026-05-01 14:50 | 47.69205 | 7.37324 | 2748 ft | 85 kts | 335° |
| 2026-05-01 14:51 | 47.69828 | 7.37107 | 2617 ft | 96 kts | 360° |
| 2026-05-01 14:51 | 47.71165 | 7.37912 | 2168 ft | 99 kts | 36° |
| 2026-05-01 14:52 | 47.72263 | 7.39184 | 1748 ft | 99 kts | 42° |
| 2026-05-01 14:52 | 47.72723 | 7.39940 | 1561 ft | 97 kts | 49° |
| 2026-05-01 14:52 | 47.73460 | 7.41370 | 1652 ft | 87 kts | 69° |
| 2026-05-01 14:53 | 47.73819 | 7.42091 | 1740 ft | 84 kts | 60° |
| 2026-05-01 14:53 | 47.73911 | 7.42982 | 1803 ft | 83 kts | 89° |
| 2026-05-01 14:53 | 47.73895 | 7.43816 | 1881 ft | 82 kts | 93° |
| 2026-05-01 14:53 | 47.73928 | 7.44647 | 1916 ft | 80 kts | 69° |
| 2026-05-01 14:54 | 47.74243 | 7.45214 | 1896 ft | 77 kts | 25° |
| 2026-05-01 14:54 | 47.74705 | 7.45425 | 1855 ft | 66 kts | 8° |
| 2026-05-01 14:54 | 47.75184 | 7.45524 | 1708 ft | 69 kts | 13° |
| 2026-05-01 14:54 | 47.75654 | 7.45608 | 1558 ft | 69 kts | 349° |
| 2026-05-01 14:55 | 47.76042 | 7.45320 | 1382 ft | 62 kts | 313° |
| 2026-05-01 14:55 | 47.76171 | 7.44761 | 1237 ft | 61 kts | 257° |
| 2026-05-01 14:55 | 47.75889 | 7.44299 | 1169 ft | 61 kts | 218° |
| 2026-05-01 14:55 | 47.75511 | 7.44066 | 1116 ft | 61 kts | 211° |
| 2026-05-01 14:56 | 47.75110 | 7.43792 | 1039 ft | 65 kts | 205° |
| 2026-05-01 14:56 | 47.74663 | 7.43529 | 879 ft | 67 kts | 204° |
| 2026-05-01 14:56 | 47.74287 | 7.43290 | 805 ft | 44 kts | 201° |
| 2026-05-01 14:56 | 47.74027 | 7.43106 | 784 ft | 49 kts | 226° |
| 2026-05-01 14:57 | 47.73707 | 7.42832 | 915 ft | 50 kts | 207° |
| 2026-05-01 14:57 | 47.72996 | 7.43194 | 1168 ft | 75 kts | 104° |
| 2026-05-01 14:57 | 47.72904 | 7.44000 | 1271 ft | 84 kts | 95° |
| 2026-05-01 14:58 | 47.72839 | 7.44939 | 1339 ft | 95 kts | 94° |
| 2026-05-01 14:58 | 47.72842 | 7.45964 | 1427 ft | 97 kts | 82° |
| 2026-05-01 14:58 | 47.72949 | 7.47028 | 1436 ft | 103 kts | 78° |
| 2026-05-01 14:58 | 47.73169 | 7.47945 | 1653 ft | 95 kts | 54° |
| 2026-05-01 14:59 | 47.73518 | 7.48834 | 1566 ft | 109 kts | 81° |
| 2026-05-01 14:59 | 47.73586 | 7.49902 | 1692 ft | 105 kts | 81° |
| 2026-05-01 14:59 | 47.73824 | 7.50969 | 1630 ft | 110 kts | 58° |
| 2026-05-01 14:59 | 47.73628 | 7.51786 | 1468 ft | 83 kts | 202° |
| 2026-05-01 15:00 | 47.72343 | 7.52077 | 1493 ft | 107 kts | 159° |
| 2026-05-01 15:00 | 47.71800 | 7.52641 | 1771 ft | 92 kts | 130° |
| 2026-05-01 15:00 | 47.71476 | 7.53517 | 1808 ft | 98 kts | 125° |
| 2026-05-01 15:01 | 47.70973 | 7.54018 | 2011 ft | 87 kts | 160° |
| 2026-05-01 15:01 | 47.70395 | 7.54497 | 1942 ft | 102 kts | 170° |
| 2026-05-01 15:01 | 47.69742 | 7.54664 | 2124 ft | 91 kts | 167° |
| 2026-05-01 15:01 | 47.69137 | 7.55065 | 2186 ft | 98 kts | 153° |
| 2026-05-01 15:02 | 47.68581 | 7.55616 | 2319 ft | 95 kts | 143° |
| 2026-05-01 15:02 | 47.68250 | 7.56047 | 2372 ft | 97 kts | 137° |
| 2026-05-01 15:02 | 47.67699 | 7.57107 | 2517 ft | 96 kts | 123° |
| 2026-05-01 15:02 | 47.67141 | 7.57636 | 2503 ft | 104 kts | 177° |
| 2026-05-01 15:03 | 47.66375 | 7.57644 | 2333 ft | 113 kts | 183° |
| 2026-05-01 15:03 | 47.65589 | 7.57626 | 2282 ft | 112 kts | 182° |
| 2026-05-01 15:03 | 47.64838 | 7.57694 | 2305 ft | 109 kts | 171° |
| 2026-05-01 15:03 | 47.64094 | 7.57970 | 2260 ft | 110 kts | 173° |
| 2026-05-01 15:04 | 47.63355 | 7.57806 | 2092 ft | 116 kts | 214° |
| 2026-05-01 15:04 | 47.62828 | 7.56970 | 2020 ft | 106 kts | 245° |
| 2026-05-01 15:04 | 47.62757 | 7.55883 | 1879 ft | 108 kts | 279° |
| 2026-05-01 15:04 | 47.62844 | 7.54912 | 2004 ft | 79 kts | 279° |
| 2026-05-01 15:05 | 47.62919 | 7.54180 | 2083 ft | 65 kts | 276° |
| 2026-05-01 15:05 | 47.62994 | 7.53499 | 2034 ft | 77 kts | 274° |
| 2026-05-01 15:05 | 47.62959 | 7.52732 | 1983 ft | 73 kts | 260° |
| 2026-05-01 15:05 | 47.62766 | 7.52044 | 1901 ft | 66 kts | 231° |
| 2026-05-01 15:06 | 47.62481 | 7.51552 | 1745 ft | 63 kts | 231° |
| 2026-05-01 15:06 | 47.62140 | 7.51180 | 1610 ft | 62 kts | 204° |
| 2026-05-01 15:06 | 47.61705 | 7.51123 | 1446 ft | 62 kts | 168° |
| 2026-05-01 15:06 | 47.61274 | 7.51344 | 1230 ft | 66 kts | 160° |
| 2026-05-01 15:07 | 47.60863 | 7.51621 | 1032 ft | 65 kts | 159° |
| 2026-05-01 15:07 | 47.60475 | 7.51897 | 897 ft | 50 kts | 153° |
| 2026-05-01 15:07 | 47.60227 | 7.52048 | 882 ft | 28 kts | 150° |
| 2026-05-01 15:07 | 47.60141 | 7.52226 | 882 ft | 15 kts | 70° |
| 2026-05-01 15:08 | 47.60150 | 7.52293 | 881 ft | 0 kts | 66° |
| 2026-05-01 15:09 | 47.60150 | 7.52294 | 881 ft | 1 kts | 66° |
| 2026-05-01 15:09 | 47.60189 | 7.52422 | 883 ft | 28 kts | 61° |
| 2026-05-01 15:09 | 47.60367 | 7.51982 | 878 ft | 22 kts | 142° |
| 2026-05-01 15:09 | 47.60126 | 7.52191 | 882 ft | 53 kts | 131° |
| 2026-05-01 15:10 | 47.60141 | 7.52487 | 884 ft | 10 kts | 13° |
| 2026-05-01 15:10 | 47.60260 | 7.52516 | 888 ft | 6 kts | 22° |
| 2026-05-01 15:10 | 47.60290 | 7.52557 | 888 ft | 11 kts | 43° |
| 2026-05-01 15:11 | 47.60286 | 7.52594 | 888 ft | 0 kts | 141° |